Time;durP1;ratioP1;P1;durP2;ratioP2;P2;SDS_P1;SDS_P2;PMS_P1;PMS_P2;Temp;Humidity;BMP_temperature;BMP_pressure;BME280_temperature;BME280_humidity;BME280_pressure;Samples;Min_cycle;Max_cycle;Signal;HPM_P1;HPM_P2
2024/02/02 00:02:20;;;;;;;218.30;57.03;;;;;;;;;;5093657;28;20731;-44
2024/02/02 00:04:46;;;;;;;220.33;57.97;;;;;;;;;;5091784;28;20910;-43
2024/02/02 00:07:12;;;;;;;219.07;58.70;;;;;;;;;;5088382;28;20416;-43
2024/02/02 00:09:38;;;;;;;218.50;57.22;;;;;;;;;;5088338;28;20407;-43
2024/02/02 00:12:06;;;;;;;220.48;59.28;;;;;;;;;;5088750;28;20197;-43
2024/02/02 00:14:32;;;;;;;219.82;58.78;;;;;;;;;;5088029;28;20185;-43
2024/02/02 00:16:58;;;;;;;219.32;57.63;;;;;;;;;;5088263;28;20186;-44
2024/02/02 00:19:25;;;;;;;218.52;58.15;;;;;;;;;;5092351;28;20717;-43
2024/02/02 00:21:51;;;;;;;217.80;56.45;;;;;;;;;;5092210;28;20198;-45
2024/02/02 00:24:16;;;;;;;217.53;57.80;;;;;;;;;;5087801;28;20170;-44
2024/02/02 00:26:42;;;;;;;218.27;57.37;;;;;;;;;;5088126;28;20416;-44
2024/02/02 00:29:08;;;;;;;217.33;57.90;;;;;;;;;;5086573;28;20417;-44
2024/02/02 00:31:34;;;;;;;219.63;58.65;;;;;;;;;;5087679;28;20431;-43
2024/02/02 00:34:01;;;;;;;216.73;57.77;;;;;;;;;;5087578;28;20247;-43
2024/02/02 00:36:27;;;;;;;217.68;58.33;;;;;;;;;;5091489;28;20409;-43
2024/02/02 00:38:53;;;;;;;218.00;56.95;;;;;;;;;;5092236;28;20580;-44
2024/02/02 00:41:19;;;;;;;217.23;56.58;;;;;;;;;;5083104;28;20191;-44
2024/02/02 00:43:46;;;;;;;217.03;56.17;;;;;;;;;;5090968;28;20181;-44
2024/02/02 00:46:12;;;;;;;216.75;56.53;;;;;;;;;;5087756;28;20786;-43
2024/02/02 00:48:39;;;;;;;216.30;56.03;;;;;;;;;;5085103;28;20166;-44
2024/02/02 00:51:05;;;;;;;218.20;56.63;;;;;;;;;;5071289;28;20451;-44
2024/02/02 00:53:31;;;;;;;219.68;58.03;;;;;;;;;;5082441;28;20776;-43
2024/02/02 00:55:57;;;;;;;217.77;56.27;;;;;;;;;;5075718;28;20191;-44
2024/02/02 00:58:23;;;;;;;217.17;57.10;;;;;;;;;;5085700;28;20888;-44
2024/02/02 01:00:51;;;;;;;216.93;56.30;;;;;;;;;;5091243;28;20428;-44
2024/02/02 01:03:16;;;;;;;218.18;57.20;;;;;;;;;;5087768;28;20788;-44
2024/02/02 01:05:43;;;;;;;215.53;55.10;;;;;;;;;;5087466;28;20178;-44
2024/02/02 01:08:09;;;;;;;218.02;57.65;;;;;;;;;;5085644;28;20412;-43
2024/02/02 01:10:35;;;;;;;216.85;57.08;;;;;;;;;;5075477;28;20172;-43
2024/02/02 01:13:04;;;;;;;214.43;55.80;;;;;;;;;;5086057;28;20204;-43
2024/02/02 01:15:30;;;;;;;217.10;56.15;;;;;;;;;;5090890;28;20202;-44
2024/02/02 01:17:56;;;;;;;218.05;58.05;;;;;;;;;;5092163;28;20257;-45
2024/02/02 01:20:22;;;;;;;215.80;57.15;;;;;;;;;;5087647;28;20697;-44
2024/02/02 01:22:48;;;;;;;217.47;57.73;;;;;;;;;;5087160;28;20225;-44
2024/02/02 01:25:14;;;;;;;217.52;57.72;;;;;;;;;;5088347;28;20506;-43
2024/02/02 01:27:41;;;;;;;217.07;56.53;;;;;;;;;;5082148;28;20217;-43
2024/02/02 01:30:07;;;;;;;217.38;57.28;;;;;;;;;;5078707;28;20174;-43
2024/02/02 01:32:34;;;;;;;216.95;56.90;;;;;;;;;;5089896;28;20302;-44
2024/02/02 01:35:00;;;;;;;217.82;58.00;;;;;;;;;;5091167;28;20195;-44
2024/02/02 01:37:26;;;;;;;216.88;56.40;;;;;;;;;;5088377;28;20173;-44
2024/02/02 01:39:52;;;;;;;217.18;57.42;;;;;;;;;;5088455;28;20637;-44
2024/02/02 01:42:18;;;;;;;217.30;57.13;;;;;;;;;;5086903;28;20193;-44
2024/02/02 01:44:44;;;;;;;217.95;57.90;;;;;;;;;;5086728;28;20178;-44
2024/02/02 01:47:11;;;;;;;217.65;57.47;;;;;;;;;;5087176;28;20419;-44
2024/02/02 01:49:37;;;;;;;217.18;57.58;;;;;;;;;;5089494;28;20250;-44
2024/02/02 01:52:03;;;;;;;216.37;56.53;;;;;;;;;;5091526;28;20603;-44
2024/02/02 01:54:30;;;;;;;217.40;57.45;;;;;;;;;;5084292;28;20460;-44
2024/02/02 01:56:56;;;;;;;216.68;56.65;;;;;;;;;;5088092;28;20174;-44
2024/02/02 01:59:24;;;;;;;217.50;56.85;;;;;;;;;;5086925;28;20186;-43
2024/02/02 02:04:53;;;;;;;217.32;57.97;;;;;;;;;;5086381;28;20299;-44
2024/02/02 02:07:19;;;;;;;219.82;58.70;;;;;;;;;;5087358;28;20176;-44
2024/02/02 02:09:45;;;;;;;218.35;58.55;;;;;;;;;;5086281;28;20188;-45
2024/02/02 02:12:12;;;;;;;217.63;58.38;;;;;;;;;;5086432;28;20486;-43
2024/02/02 02:14:38;;;;;;;218.75;58.95;;;;;;;;;;5088049;28;20699;-43
2024/02/02 02:17:04;;;;;;;220.13;59.65;;;;;;;;;;5090853;28;20264;-44
2024/02/02 02:19:30;;;;;;;219.73;60.60;;;;;;;;;;5087016;28;20174;-43
2024/02/02 02:21:56;;;;;;;217.77;59.55;;;;;;;;;;5086893;28;20419;-45
2024/02/02 02:24:22;;;;;;;218.67;60.47;;;;;;;;;;5085449;28;20378;-43
2024/02/02 02:26:48;;;;;;;219.23;60.27;;;;;;;;;;5085507;28;20426;-44
2024/02/02 02:29:14;;;;;;;220.30;60.90;;;;;;;;;;5085659;28;20404;-44
2024/02/02 02:31:40;;;;;;;218.10;59.53;;;;;;;;;;5086648;28;20194;-43
2024/02/02 02:34:06;;;;;;;219.70;62.17;;;;;;;;;;5090132;28;20205;-44
2024/02/02 02:36:32;;;;;;;220.93;61.90;;;;;;;;;;5083835;28;20634;-44
2024/02/02 02:38:58;;;;;;;220.17;61.63;;;;;;;;;;5090352;28;20190;-44
2024/02/02 02:41:24;;;;;;;219.83;61.20;;;;;;;;;;5085856;28;21002;-44
2024/02/02 02:43:50;;;;;;;217.80;60.65;;;;;;;;;;5085226;28;20403;-44
2024/02/02 02:46:17;;;;;;;213.70;61.70;;;;;;;;;;5085636;28;20639;-43
2024/02/02 02:48:43;;;;;;;215.50;63.58;;;;;;;;;;5087114;28;20815;-44
2024/02/02 02:51:09;;;;;;;214.80;62.60;;;;;;;;;;5070972;28;20192;-44
2024/02/02 02:53:35;;;;;;;218.70;64.57;;;;;;;;;;5075981;28;20210;-44
2024/02/02 02:56:03;;;;;;;221.77;64.10;;;;;;;;;;5086509;28;20418;-44
2024/02/02 02:58:29;;;;;;;214.63;62.70;;;;;;;;;;5079422;28;20453;-43
2024/02/02 03:00:55;;;;;;;209.77;63.00;;;;;;;;;;5080850;28;20213;-43
2024/02/02 03:03:21;;;;;;;221.82;65.07;;;;;;;;;;5084348;28;20405;-44
2024/02/02 03:05:47;;;;;;;222.13;65.80;;;;;;;;;;5084707;28;20177;-44
2024/02/02 03:08:13;;;;;;;220.32;63.70;;;;;;;;;;5084733;28;20411;-44
2024/02/02 03:10:41;;;;;;;218.50;63.30;;;;;;;;;;5078058;28;20178;-44
2024/02/02 03:13:07;;;;;;;218.95;62.78;;;;;;;;;;5087375;28;20899;-44
2024/02/02 03:15:33;;;;;;;220.77;64.45;;;;;;;;;;5086166;28;20202;-43
2024/02/02 03:18:00;;;;;;;218.27;63.92;;;;;;;;;;5085318;28;20173;-44
2024/02/02 03:20:27;;;;;;;219.75;61.75;;;;;;;;;;5085385;28;20171;-45
2024/02/02 03:22:56;;;;;;;219.73;61.97;;;;;;;;;;5084462;28;20420;-43
2024/02/02 03:25:22;;;;;;;220.63;62.78;;;;;;;;;;5074121;28;20201;-43
2024/02/02 03:27:48;;;;;;;220.15;62.55;;;;;;;;;;5085662;28;20175;-44
2024/02/02 03:30:14;;;;;;;219.70;63.20;;;;;;;;;;5089119;28;20231;-44
2024/02/02 03:32:41;;;;;;;221.10;63.30;;;;;;;;;;5081752;28;20974;-44
2024/02/02 03:35:07;;;;;;;221.27;62.45;;;;;;;;;;5075920;28;20230;-44
2024/02/02 03:37:33;;;;;;;219.48;60.97;;;;;;;;;;5089123;28;20169;-44
2024/02/02 03:39:59;;;;;;;220.90;63.40;;;;;;;;;;5084164;28;20182;-44
2024/02/02 03:42:25;;;;;;;221.02;63.05;;;;;;;;;;5083883;28;20555;-43
2024/02/02 03:44:51;;;;;;;217.93;61.17;;;;;;;;;;5085298;28;20181;-43
2024/02/02 03:47:17;;;;;;;216.53;60.00;;;;;;;;;;5084620;28;20942;-44
2024/02/02 03:49:43;;;;;;;218.13;61.30;;;;;;;;;;5085710;28;20419;-44
2024/02/02 03:52:09;;;;;;;218.93;61.43;;;;;;;;;;5088784;28;20471;-44
2024/02/02 03:54:35;;;;;;;221.07;62.73;;;;;;;;;;5085747;28;20449;-45
2024/02/02 03:57:01;;;;;;;218.00;60.20;;;;;;;;;;5083931;28;20415;-44
2024/02/02 03:59:27;;;;;;;219.43;62.20;;;;;;;;;;5085267;28;20178;-44
2024/02/02 04:01:53;;;;;;;218.10;60.45;;;;;;;;;;5081931;28;20241;-44
2024/02/02 04:04:19;;;;;;;216.27;60.28;;;;;;;;;;5083430;28;20166;-43
2024/02/02 04:06:46;;;;;;;216.53;60.60;;;;;;;;;;5085789;28;20661;-44
2024/02/02 04:09:12;;;;;;;209.48;59.50;;;;;;;;;;5089168;28;20409;-45
2024/02/02 04:11:38;;;;;;;217.53;60.23;;;;;;;;;;5086324;28;20197;-43
2024/02/02 04:14:05;;;;;;;218.35;60.90;;;;;;;;;;5083788;28;20542;-43
2024/02/02 04:16:31;;;;;;;219.52;60.10;;;;;;;;;;5085550;28;20166;-44
2024/02/02 04:18:59;;;;;;;217.07;58.80;;;;;;;;;;5084351;28;20171;-43
2024/02/02 04:21:25;;;;;;;218.60;60.47;;;;;;;;;;5084070;28;20186;-45
2024/02/02 04:23:51;;;;;;;217.57;59.40;;;;;;;;;;5084724;28;20166;-44
2024/02/02 04:26:17;;;;;;;218.17;59.40;;;;;;;;;;5088538;28;20508;-44
2024/02/02 04:28:43;;;;;;;219.38;60.75;;;;;;;;;;5081415;28;20412;-44
2024/02/02 04:31:09;;;;;;;220.03;61.67;;;;;;;;;;5088670;28;20193;-43
2024/02/02 04:33:35;;;;;;;219.13;62.27;;;;;;;;;;5085530;28;20486;-44
2024/02/02 04:36:00;;;;;;;217.38;58.30;;;;;;;;;;5083786;28;20452;-44
2024/02/02 04:38:26;;;;;;;217.30;58.30;;;;;;;;;;5083781;28;20634;-44
2024/02/02 04:40:52;;;;;;;218.10;58.97;;;;;;;;;;5084756;28;20404;-44
2024/02/02 04:43:18;;;;;;;216.35;57.97;;;;;;;;;;5083254;28;20400;-44
2024/02/02 04:45:44;;;;;;;217.23;58.38;;;;;;;;;;5085930;28;20304;-43
2024/02/02 04:48:10;;;;;;;215.87;57.87;;;;;;;;;;5092483;28;20181;-44
2024/02/02 04:50:36;;;;;;;218.35;59.03;;;;;;;;;;5072023;28;20904;-43
2024/02/02 04:53:02;;;;;;;218.37;58.47;;;;;;;;;;5083011;28;20197;-44
2024/02/02 04:55:29;;;;;;;218.38;58.30;;;;;;;;;;5081059;28;20822;-44
2024/02/02 04:57:55;;;;;;;218.52;59.22;;;;;;;;;;5081585;28;20646;-43
2024/02/02 05:00:21;;;;;;;217.43;56.90;;;;;;;;;;5078909;28;20189;-44
2024/02/02 05:02:47;;;;;;;216.65;56.80;;;;;;;;;;5083782;28;20471;-44
2024/02/02 05:05:14;;;;;;;218.75;58.03;;;;;;;;;;5091502;28;20181;-44
2024/02/02 05:07:40;;;;;;;216.52;56.72;;;;;;;;;;5089696;28;20577;-43
2024/02/02 05:10:06;;;;;;;216.50;56.90;;;;;;;;;;5078204;28;20186;-44
2024/02/02 05:12:32;;;;;;;218.60;58.90;;;;;;;;;;5077365;28;20961;-44
2024/02/02 05:14:58;;;;;;;218.25;58.53;;;;;;;;;;5087597;28;20210;-43
2024/02/02 05:17:24;;;;;;;215.67;57.20;;;;;;;;;;5086689;28;20172;-43
2024/02/02 05:19:50;;;;;;;218.57;59.03;;;;;;;;;;5087546;28;20405;-43
2024/02/02 05:22:16;;;;;;;217.25;58.40;;;;;;;;;;5091740;28;20421;-44
2024/02/02 05:24:42;;;;;;;218.25;59.67;;;;;;;;;;5083305;28;20187;-44
2024/02/02 05:27:08;;;;;;;215.50;57.45;;;;;;;;;;5091383;28;20224;-43
2024/02/02 05:29:34;;;;;;;218.75;59.50;;;;;;;;;;5088340;28;20178;-43
2024/02/02 05:32:00;;;;;;;218.17;59.17;;;;;;;;;;5086550;28;20316;-44
2024/02/02 05:34:26;;;;;;;220.05;60.63;;;;;;;;;;5085782;28;20969;-44
2024/02/02 05:36:54;;;;;;;217.77;58.67;;;;;;;;;;5087303;28;20170;-44
2024/02/02 05:39:20;;;;;;;217.50;57.30;;;;;;;;;;5086493;28;20478;-44
2024/02/02 05:41:46;;;;;;;217.13;59.67;;;;;;;;;;5087433;28;20241;-43
2024/02/02 05:44:12;;;;;;;220.00;60.20;;;;;;;;;;5090758;28;20899;-43
2024/02/02 05:46:38;;;;;;;217.77;59.42;;;;;;;;;;5088459;28;20408;-43
2024/02/02 05:49:04;;;;;;;218.27;59.77;;;;;;;;;;5085492;28;20557;-44
2024/02/02 05:51:29;;;;;;;218.83;61.47;;;;;;;;;;5086968;28;20434;-44
2024/02/02 05:53:55;;;;;;;220.33;61.97;;;;;;;;;;5085857;28;20461;-44
2024/02/02 05:56:21;;;;;;;218.67;60.27;;;;;;;;;;5085650;28;20399;-45
2024/02/02 05:58:47;;;;;;;219.95;60.35;;;;;;;;;;5085796;28;20409;-44
2024/02/02 06:04:17;;;;;;;218.15;59.90;;;;;;;;;;5090456;28;20399;-44
2024/02/02 06:06:43;;;;;;;217.95;59.47;;;;;;;;;;5082809;28;20553;-44
2024/02/02 06:09:11;;;;;;;218.70;60.63;;;;;;;;;;5090863;28;20174;-44
2024/02/02 06:11:37;;;;;;;219.20;61.47;;;;;;;;;;5087844;28;20190;-45
2024/02/02 06:14:03;;;;;;;218.80;60.50;;;;;;;;;;5085430;28;20247;-45
2024/02/02 06:16:29;;;;;;;218.63;60.60;;;;;;;;;;5085846;28;20181;-43
2024/02/02 06:18:55;;;;;;;218.10;60.33;;;;;;;;;;5086538;28;20434;-44
2024/02/02 06:21:21;;;;;;;217.10;59.47;;;;;;;;;;5085540;28;20927;-44
2024/02/02 06:23:47;;;;;;;216.13;60.28;;;;;;;;;;5087250;28;20430;-44
2024/02/02 06:26:13;;;;;;;218.52;60.17;;;;;;;;;;5102156;28;20188;-44
2024/02/02 06:28:39;;;;;;;218.38;60.03;;;;;;;;;;5088136;28;20173;-44
2024/02/02 06:31:05;;;;;;;217.20;59.22;;;;;;;;;;5085477;28;20307;-44
2024/02/02 06:33:31;;;;;;;223.10;64.38;;;;;;;;;;5086138;28;20173;-43
2024/02/02 06:35:57;;;;;;;219.93;62.70;;;;;;;;;;5085897;28;20314;-44
2024/02/02 06:38:23;;;;;;;220.43;63.40;;;;;;;;;;5086040;28;20553;-44
2024/02/02 06:40:49;;;;;;;221.43;64.50;;;;;;;;;;5086692;28;20420;-44
2024/02/02 06:43:15;;;;;;;219.55;62.00;;;;;;;;;;5090254;28;20174;-45
2024/02/02 06:45:41;;;;;;;217.10;59.53;;;;;;;;;;5088097;28;20175;-44
2024/02/02 06:48:10;;;;;;;218.82;62.42;;;;;;;;;;5084432;28;20699;-43
2024/02/02 06:50:36;;;;;;;219.45;61.72;;;;;;;;;;5073569;28;20660;-44
2024/02/02 06:53:02;;;;;;;219.85;61.95;;;;;;;;;;5077469;28;20202;-44
2024/02/02 06:55:29;;;;;;;223.55;66.15;;;;;;;;;;5074952;28;20267;-43
2024/02/02 06:57:55;;;;;;;221.00;62.88;;;;;;;;;;5085724;28;20594;-44
2024/02/02 07:00:21;;;;;;;226.75;68.25;;;;;;;;;;5081380;28;20178;-43
2024/02/02 07:02:47;;;;;;;219.35;63.33;;;;;;;;;;5075939;28;20286;-43
2024/02/02 07:05:14;;;;;;;223.68;65.63;;;;;;;;;;5081999;28;20224;-43
2024/02/02 07:07:40;;;;;;;222.23;64.68;;;;;;;;;;5077123;28;20206;-43
2024/02/02 07:10:08;;;;;;;221.10;63.95;;;;;;;;;;5082160;28;20267;-43
2024/02/02 07:12:56;;;;;;;221.85;65.63;;;;;;;;;;5089523;28;20198;-43
2024/02/02 07:15:22;;;;;;;219.23;63.00;;;;;;;;;;5076619;28;20197;-43
2024/02/02 07:17:49;;;;;;;220.43;63.60;;;;;;;;;;5085983;28;20181;-43
2024/02/02 07:20:28;;;;;;;222.93;65.13;;;;;;;;;;5089800;28;20656;-44
2024/02/02 07:22:55;;;;;;;220.45;63.70;;;;;;;;;;5086386;28;20194;-44
2024/02/02 07:25:22;;;;;;;221.70;64.70;;;;;;;;;;5089626;28;20188;-43
2024/02/02 07:27:55;;;;;;;219.98;63.72;;;;;;;;;;5083574;28;20268;-43
2024/02/02 07:30:21;;;;;;;220.38;63.20;;;;;;;;;;5090041;28;20645;-43
2024/02/02 07:32:47;;;;;;;221.07;65.37;;;;;;;;;;5089080;28;20208;-43
2024/02/02 07:35:27;;;;;;;220.13;63.92;;;;;;;;;;5084850;28;20517;-42
2024/02/02 07:37:54;;;;;;;218.05;61.58;;;;;;;;;;5085227;28;20173;-44
2024/02/02 07:40:38;;;;;;;219.05;62.03;;;;;;;;;;5086387;28;20166;-46
2024/02/02 07:43:04;;;;;;;220.38;64.22;;;;;;;;;;5085002;28;20197;-43
2024/02/02 07:45:30;;;;;;;218.10;61.97;;;;;;;;;;5084658;28;20195;-44
2024/02/02 07:47:56;;;;;;;218.40;63.37;;;;;;;;;;5085437;28;20892;-43
2024/02/02 07:50:22;;;;;;;218.80;63.53;;;;;;;;;;5085307;28;20411;-43
2024/02/02 07:52:48;;;;;;;222.77;67.40;;;;;;;;;;5092154;28;20440;-44
2024/02/02 07:55:14;;;;;;;226.70;70.40;;;;;;;;;;5072946;28;20456;-44
2024/02/02 07:57:40;;;;;;;217.80;64.28;;;;;;;;;;5081302;28;20219;-44
2024/02/02 08:00:07;;;;;;;220.25;66.20;;;;;;;;;;5078682;28;20651;-44
2024/02/02 08:02:33;;;;;;;219.80;64.18;;;;;;;;;;5085339;28;20220;-43
2024/02/02 08:04:59;;;;;;;220.40;64.80;;;;;;;;;;5084369;28;20179;-44
2024/02/02 08:07:25;;;;;;;220.07;63.53;;;;;;;;;;5083567;28;20411;-43
2024/02/02 08:09:51;;;;;;;222.77;66.80;;;;;;;;;;5087913;28;20423;-44
2024/02/02 08:12:17;;;;;;;219.17;62.87;;;;;;;;;;5082432;28;20442;-43
2024/02/02 08:14:43;;;;;;;224.97;69.33;;;;;;;;;;5087009;28;20461;-44
2024/02/02 08:17:09;;;;;;;224.45;67.97;;;;;;;;;;5084803;28;20492;-43
2024/02/02 08:19:36;;;;;;;225.32;68.47;;;;;;;;;;5084828;28;20734;-43
2024/02/02 08:22:02;;;;;;;223.38;66.95;;;;;;;;;;5087327;28;20650;-44
2024/02/02 08:24:28;;;;;;;224.45;68.60;;;;;;;;;;5092190;28;20191;-44
2024/02/02 08:26:55;;;;;;;224.27;66.17;;;;;;;;;;5085268;28;20189;-43
2024/02/02 08:29:22;;;;;;;224.35;66.18;;;;;;;;;;5089431;28;20446;-43
2024/02/02 08:31:48;;;;;;;226.65;68.53;;;;;;;;;;5080740;28;20216;-44
2024/02/02 08:34:14;;;;;;;227.95;71.63;;;;;;;;;;5082287;28;20580;-43
2024/02/02 08:36:41;;;;;;;229.40;69.60;;;;;;;;;;5081141;28;20194;-44
2024/02/02 08:39:11;;;;;;;229.32;69.97;;;;;;;;;;5083622;28;20170;-43
2024/02/02 08:41:37;;;;;;;229.45;69.97;;;;;;;;;;5087035;28;20207;-43
2024/02/02 08:44:05;;;;;;;228.98;70.45;;;;;;;;;;5087653;28;20169;-43
2024/02/02 08:46:35;;;;;;;232.25;72.38;;;;;;;;;;5090277;28;20170;-45
2024/02/02 08:49:01;;;;;;;228.55;69.25;;;;;;;;;;5092983;28;20547;-44
2024/02/02 08:51:46;;;;;;;231.63;73.30;;;;;;;;;;5080756;28;20195;-43
2024/02/02 08:54:15;;;;;;;229.35;72.47;;;;;;;;;;5073965;28;20224;-44
2024/02/02 08:56:42;;;;;;;231.50;72.45;;;;;;;;;;5083806;28;20612;-44
2024/02/02 08:59:27;;;;;;;229.20;70.03;;;;;;;;;;5086641;28;20187;-43
2024/02/02 09:01:53;;;;;;;232.57;71.82;;;;;;;;;;5079491;28;20201;-44
2024/02/02 09:04:24;;;;;;;228.27;69.57;;;;;;;;;;5094743;28;20187;-45
2024/02/02 09:06:50;;;;;;;229.60;70.53;;;;;;;;;;5088250;28;20415;-44
2024/02/02 09:09:17;;;;;;;229.47;69.77;;;;;;;;;;5087144;28;20186;-43
2024/02/02 09:11:48;;;;;;;229.48;70.38;;;;;;;;;;5088808;28;20433;-44
2024/02/02 09:14:17;;;;;;;230.15;72.03;;;;;;;;;;5091987;28;20189;-43
2024/02/02 09:16:44;;;;;;;230.40;70.75;;;;;;;;;;5090499;28;20173;-43
2024/02/02 09:19:29;;;;;;;229.30;68.63;;;;;;;;;;5087323;28;20192;-44
2024/02/02 09:21:57;;;;;;;229.88;68.43;;;;;;;;;;5087542;28;20200;-43
2024/02/02 09:24:42;;;;;;;231.45;69.72;;;;;;;;;;5079038;28;20169;-44
2024/02/02 09:27:14;;;;;;;230.77;69.45;;;;;;;;;;5087011;28;20196;-44
2024/02/02 09:29:44;;;;;;;231.02;70.82;;;;;;;;;;5087174;28;20681;-43
2024/02/02 09:32:10;;;;;;;231.50;71.28;;;;;;;;;;5086272;28;20191;-44
2024/02/02 09:34:37;;;;;;;231.15;69.75;;;;;;;;;;5088971;28;20282;-43
2024/02/02 09:37:03;;;;;;;232.77;70.35;;;;;;;;;;5084199;28;20173;-44
2024/02/02 09:39:49;;;;;;;231.05;71.20;;;;;;;;;;5090500;28;20661;-43
2024/02/02 09:42:34;;;;;;;232.10;72.38;;;;;;;;;;5079265;28;20190;-44
2024/02/02 09:45:03;;;;;;;234.25;72.90;;;;;;;;;;5088305;28;20641;-44
2024/02/02 09:47:42;;;;;;;232.13;71.25;;;;;;;;;;5094945;28;20185;-43
2024/02/02 09:50:08;;;;;;;232.07;70.43;;;;;;;;;;5092327;28;20553;-43
2024/02/02 09:53:10;;;;;;;231.20;70.97;;;;;;;;;;5081743;28;20250;-43
2024/02/02 09:55:59;;;;;;;235.93;74.93;;;;;;;;;;5007174;28;20204;-43
2024/02/02 09:58:43;;;;;;;232.13;71.97;;;;;;;;;;5055825;28;20185;-43
2024/02/02 10:01:25;;;;;;;234.05;76.57;;;;;;;;;;5072823;28;20700;-45
2024/02/02 10:04:04;;;;;;;232.73;71.78;;;;;;;;;;5069634;28;20177;-44
2024/02/02 10:06:33;;;;;;;230.52;69.82;;;;;;;;;;5093808;28;20205;-44
2024/02/02 10:09:18;;;;;;;233.80;72.85;;;;;;;;;;5093524;28;20638;-44
2024/02/02 10:12:04;;;;;;;233.30;72.40;;;;;;;;;;5093349;28;20643;-44
2024/02/02 10:14:35;;;;;;;234.20;71.70;;;;;;;;;;5093316;28;20197;-44
2024/02/02 10:17:21;;;;;;;235.13;73.10;;;;;;;;;;5093242;28;20512;-44
2024/02/02 10:20:03;;;;;;;234.32;72.95;;;;;;;;;;5093210;28;20306;-44
2024/02/02 10:22:35;;;;;;;235.48;73.57;;;;;;;;;;5092301;28;20192;-44
2024/02/02 10:25:04;;;;;;;241.98;78.45;;;;;;;;;;5069455;28;20209;-44
2024/02/02 10:27:36;;;;;;;235.70;71.45;;;;;;;;;;5088541;28;20260;-44
2024/02/02 10:30:27;;;;;;;237.85;72.75;;;;;;;;;;5073590;28;20243;-44
2024/02/02 10:32:53;;;;;;;233.57;71.07;;;;;;;;;;5063292;28;20194;-44
2024/02/02 10:35:39;;;;;;;239.60;78.30;;;;;;;;;;5079450;28;20211;-44
2024/02/02 10:38:14;;;;;;;238.25;74.53;;;;;;;;;;5081170;28;20427;-44
2024/02/02 10:40:43;;;;;;;237.70;74.07;;;;;;;;;;5075468;28;20265;-44
2024/02/02 10:43:24;;;;;;;238.65;74.22;;;;;;;;;;5077011;28;20181;-44
2024/02/02 10:45:51;;;;;;;235.57;73.40;;;;;;;;;;5092753;28;20189;-44
2024/02/02 10:48:41;;;;;;;238.65;75.05;;;;;;;;;;5083844;28;20240;-44
2024/02/02 10:51:27;;;;;;;240.73;76.07;;;;;;;;;;5065731;28;20205;-45
2024/02/02 10:54:02;;;;;;;239.10;74.60;;;;;;;;;;5064043;28;20185;-45
2024/02/02 10:56:46;;;;;;;242.40;77.80;;;;;;;;;;5075202;28;20304;-44
2024/02/02 10:59:27;;;;;;;243.95;81.18;;;;;;;;;;5092602;28;20177;-44
2024/02/02 11:02:10;;;;;;;244.15;79.32;;;;;;;;;;5092345;28;20204;-45
2024/02/02 11:04:47;;;;;;;245.48;83.05;;;;;;;;;;5091337;28;20180;-45
2024/02/02 11:07:22;;;;;;;245.68;82.85;;;;;;;;;;5052224;28;20210;-43
2024/02/02 11:09:48;;;;;;;244.60;80.93;;;;;;;;;;5052036;28;20229;-45
2024/02/02 11:12:16;;;;;;;244.57;79.90;;;;;;;;;;5086625;28;20195;-44
2024/02/02 11:14:47;;;;;;;250.55;87.20;;;;;;;;;;5091034;28;20455;-45
2024/02/02 11:17:26;;;;;;;245.75;80.90;;;;;;;;;;5082587;28;20169;-43
2024/02/02 11:20:09;;;;;;;248.98;83.40;;;;;;;;;;5078405;28;20176;-45
2024/02/02 11:23:01;;;;;;;252.75;87.38;;;;;;;;;;5077179;28;20189;-44
2024/02/02 11:25:36;;;;;;;246.00;81.70;;;;;;;;;;5074325;28;20562;-44
2024/02/02 11:28:10;;;;;;;246.50;83.22;;;;;;;;;;5082301;28;20173;-45
2024/02/02 11:30:40;;;;;;;245.50;81.38;;;;;;;;;;5069949;28;20174;-44
2024/02/02 11:33:06;;;;;;;246.25;79.93;;;;;;;;;;5069803;28;20193;-43
2024/02/02 11:35:53;;;;;;;243.13;77.18;;;;;;;;;;5076641;28;20189;-45
2024/02/02 11:38:31;;;;;;;245.45;80.15;;;;;;;;;;5077031;28;20539;-43
2024/02/02 11:40:58;;;;;;;243.40;76.85;;;;;;;;;;5092064;28;20215;-44
2024/02/02 11:43:24;;;;;;;247.85;82.97;;;;;;;;;;5091699;28;20646;-44
2024/02/02 11:45:52;;;;;;;242.38;77.68;;;;;;;;;;5091801;28;20600;-45
2024/02/02 11:48:39;;;;;;;243.63;79.55;;;;;;;;;;5091929;28;20181;-43
2024/02/02 11:51:07;;;;;;;242.40;77.60;;;;;;;;;;5080734;28;20619;-44
2024/02/02 11:53:51;;;;;;;246.35;81.10;;;;;;;;;;5082876;28;20182;-44
2024/02/02 11:56:39;;;;;;;244.32;79.03;;;;;;;;;;5093287;28;20486;-44
2024/02/02 11:59:10;;;;;;;243.13;78.80;;;;;;;;;;5096006;28;20735;-43
2024/02/02 12:01:36;;;;;;;242.60;79.50;;;;;;;;;;5095802;28;20253;-44
2024/02/02 12:04:21;;;;;;;243.50;79.57;;;;;;;;;;5095496;28;20208;-44
2024/02/02 12:06:50;;;;;;;246.02;82.20;;;;;;;;;;5096086;28;20810;-44
2024/02/02 12:09:29;;;;;;;244.10;79.70;;;;;;;;;;5095678;28;20651;-43
2024/02/02 12:11:55;;;;;;;243.57;79.30;;;;;;;;;;5093296;28;20229;-45
2024/02/02 12:14:36;;;;;;;242.02;78.00;;;;;;;;;;5055170;28;20190;-44
2024/02/02 12:17:02;;;;;;;240.90;77.85;;;;;;;;;;5055451;28;20220;-44
2024/02/02 12:19:28;;;;;;;244.70;82.40;;;;;;;;;;5090087;28;20170;-44
2024/02/02 12:21:54;;;;;;;245.93;79.88;;;;;;;;;;5095419;28;20437;-44
2024/02/02 12:24:21;;;;;;;239.98;75.22;;;;;;;;;;5095198;28;20210;-44
2024/02/02 12:26:47;;;;;;;243.15;78.68;;;;;;;;;;5095401;28;20645;-44
2024/02/02 12:29:14;;;;;;;242.13;75.77;;;;;;;;;;5095218;28;20193;-44
2024/02/02 12:31:41;;;;;;;243.63;79.18;;;;;;;;;;5095239;28;20951;-44
2024/02/02 12:34:07;;;;;;;242.38;78.65;;;;;;;;;;5095278;28;20201;-44
2024/02/02 12:36:33;;;;;;;246.07;84.60;;;;;;;;;;5095357;28;20197;-44
2024/02/02 12:38:59;;;;;;;246.18;81.40;;;;;;;;;;5095188;28;20414;-44
2024/02/02 12:41:25;;;;;;;244.23;79.40;;;;;;;;;;5095246;28;20566;-44
2024/02/02 12:43:51;;;;;;;242.90;78.17;;;;;;;;;;5095032;28;20181;-43
2024/02/02 12:46:17;;;;;;;242.90;80.07;;;;;;;;;;5095169;28;20905;-44
2024/02/02 12:48:43;;;;;;;241.98;76.70;;;;;;;;;;5095509;28;20419;-44
2024/02/02 12:51:09;;;;;;;246.00;81.47;;;;;;;;;;5085084;28;20351;-43
2024/02/02 12:53:35;;;;;;;241.73;77.00;;;;;;;;;;5095312;28;20408;-44
2024/02/02 12:56:02;;;;;;;242.27;80.07;;;;;;;;;;5086788;28;20458;-43
2024/02/02 12:58:28;;;;;;;245.38;82.38;;;;;;;;;;5090126;28;20181;-43
2024/02/02 13:00:54;;;;;;;242.53;79.30;;;;;;;;;;5091090;28;20651;-43
2024/02/02 13:03:22;;;;;;;241.95;77.20;;;;;;;;;;5086498;28;20409;-44
2024/02/02 13:05:50;;;;;;;241.48;76.80;;;;;;;;;;5086769;28;20183;-44
2024/02/02 13:08:26;;;;;;;241.73;76.63;;;;;;;;;;5081181;28;20176;-44
2024/02/02 13:10:52;;;;;;;241.32;77.00;;;;;;;;;;5074377;28;20266;-44
2024/02/02 13:13:19;;;;;;;241.57;77.05;;;;;;;;;;5075089;28;20648;-44
2024/02/02 13:15:45;;;;;;;240.80;75.95;;;;;;;;;;5080083;28;20202;-43
2024/02/02 13:18:21;;;;;;;241.45;77.07;;;;;;;;;;5079205;28;20522;-43
2024/02/02 13:20:49;;;;;;;239.00;73.45;;;;;;;;;;5081954;28;20666;-44
2024/02/02 13:23:25;;;;;;;241.68;76.70;;;;;;;;;;5085134;28;20173;-43
2024/02/02 13:25:51;;;;;;;237.55;73.03;;;;;;;;;;5082159;28;20667;-43
2024/02/02 13:28:20;;;;;;;240.45;77.35;;;;;;;;;;5075221;28;20178;-44
2024/02/02 13:30:53;;;;;;;237.70;73.40;;;;;;;;;;5078069;28;20181;-43
2024/02/02 13:33:20;;;;;;;246.73;82.32;;;;;;;;;;5094883;28;20268;-43
2024/02/02 13:35:53;;;;;;;239.05;76.03;;;;;;;;;;5094591;28;20301;-44
2024/02/02 13:38:21;;;;;;;239.55;75.03;;;;;;;;;;5081205;28;20211;-43
2024/02/02 13:40:47;;;;;;;240.07;75.45;;;;;;;;;;5092689;28;20177;-44
2024/02/02 13:43:14;;;;;;;241.77;78.47;;;;;;;;;;5094659;28;20175;-45
2024/02/02 13:45:42;;;;;;;235.93;72.05;;;;;;;;;;5094311;28;20200;-43
2024/02/02 13:48:12;;;;;;;238.68;73.95;;;;;;;;;;5094590;28;20649;-44
2024/02/02 13:50:51;;;;;;;237.30;74.60;;;;;;;;;;5090143;28;20191;-43
2024/02/02 13:53:17;;;;;;;238.93;74.07;;;;;;;;;;5079636;28;20183;-44
2024/02/02 13:55:43;;;;;;;238.10;75.47;;;;;;;;;;5083900;28;20199;-44
2024/02/02 13:58:09;;;;;;;238.97;74.67;;;;;;;;;;5060888;28;20187;-44
2024/02/02 14:00:36;;;;;;;241.83;80.90;;;;;;;;;;5077245;28;20430;-44
2024/02/02 14:03:05;;;;;;;240.10;77.10;;;;;;;;;;5080744;28;20434;-43
2024/02/02 14:05:31;;;;;;;240.75;78.40;;;;;;;;;;5088407;28;20192;-45
2024/02/02 14:07:57;;;;;;;236.60;74.40;;;;;;;;;;5084697;28;20182;-44
2024/02/02 14:10:26;;;;;;;238.77;76.40;;;;;;;;;;5094042;28;20190;-44
2024/02/02 14:12:52;;;;;;;239.30;75.03;;;;;;;;;;5093703;28;20901;-44
2024/02/02 14:15:18;;;;;;;241.90;80.47;;;;;;;;;;5081535;28;20243;-44
2024/02/02 14:17:44;;;;;;;239.83;76.47;;;;;;;;;;5092421;28;20394;-44
2024/02/02 14:20:14;;;;;;;237.75;73.05;;;;;;;;;;5077494;28;20760;-44